Time;durP1;ratioP1;P1;durP2;ratioP2;P2;SDS_P1;SDS_P2;PMS_P1;PMS_P2;Temp;Humidity;BMP_temperature;BMP_pressure;BME280_temperature;BME280_humidity;BME280_pressure;Samples;Min_cycle;Max_cycle;Signal;HPM_P1;HPM_P2
2024/02/13 00:01:24;;;;;;;10.52;1.70;;;;;;;;;;4899708;29;20064;-81
2024/02/13 00:03:57;;;;;;;8.95;1.50;;;;;;;;;;4899365;29;20513;-81
2024/02/13 00:06:29;;;;;;;11.32;1.42;;;;;;;;;;4899189;29;20052;-81
2024/02/13 00:09:01;;;;;;;8.18;1.15;;;;;;;;;;4901178;29;20067;-82
2024/02/13 00:11:31;;;;;;;12.02;2.13;;;;;;;;;;4907071;29;20507;-81
2024/02/13 00:14:02;;;;;;;14.77;1.67;;;;;;;;;;4917724;29;20062;-82
2024/02/13 00:16:37;;;;;;;16.90;1.45;;;;;;;;;;4917740;29;20442;-81
2024/02/13 00:19:09;;;;;;;8.02;1.70;;;;;;;;;;4901152;29;20048;-82
2024/02/13 00:21:40;;;;;;;11.73;1.35;;;;;;;;;;4900893;29;20044;-82
2024/02/13 00:24:10;;;;;;;11.25;1.65;;;;;;;;;;4917588;29;20048;-81
2024/02/13 00:26:40;;;;;;;11.50;1.20;;;;;;;;;;4917561;29;20063;-81
2024/02/13 00:29:12;;;;;;;5.55;1.50;;;;;;;;;;4917579;29;20055;-82
2024/02/13 00:31:43;;;;;;;9.30;1.55;;;;;;;;;;4917637;29;20547;-81
2024/02/13 00:34:19;;;;;;;9.18;1.13;;;;;;;;;;4917550;29;20071;-81
2024/02/13 00:36:50;;;;;;;11.95;1.60;;;;;;;;;;4917683;29;20059;-82
2024/02/13 00:39:21;;;;;;;11.23;1.27;;;;;;;;;;4931638;29;20415;-81
2024/02/13 00:41:54;;;;;;;15.13;1.33;;;;;;;;;;4917701;29;20055;-81
2024/02/13 00:44:26;;;;;;;13.27;1.45;;;;;;;;;;4916402;29;20040;-81
2024/02/13 00:46:57;;;;;;;11.40;1.35;;;;;;;;;;4898222;29;20048;-80
2024/02/13 00:49:28;;;;;;;11.13;2.00;;;;;;;;;;4894197;29;20423;-80
2024/02/13 00:51:58;;;;;;;8.50;1.60;;;;;;;;;;4877651;29;20060;-79
2024/02/13 00:54:30;;;;;;;15.00;1.50;;;;;;;;;;4875747;29;20056;-80
2024/02/13 00:57:00;;;;;;;8.25;1.58;;;;;;;;;;4859734;29;20045;-79
2024/02/13 00:59:30;;;;;;;11.80;1.55;;;;;;;;;;4861953;29;20068;-79
2024/02/13 01:02:01;;;;;;;7.10;1.30;;;;;;;;;;4863219;29;20056;-80
2024/02/13 01:04:31;;;;;;;9.60;1.10;;;;;;;;;;4877763;29;20391;-80
2024/02/13 01:07:02;;;;;;;9.80;1.38;;;;;;;;;;4877793;29;20048;-80
2024/02/13 01:09:32;;;;;;;15.35;1.40;;;;;;;;;;4876375;29;20048;-80
2024/02/13 01:12:05;;;;;;;12.07;2.03;;;;;;;;;;4878074;29;20443;-81
2024/02/13 01:14:37;;;;;;;11.80;1.35;;;;;;;;;;4878585;29;20040;-81
2024/02/13 01:17:07;;;;;;;13.52;1.30;;;;;;;;;;4863292;29;20056;-80
2024/02/13 01:19:38;;;;;;;9.30;1.02;;;;;;;;;;4878184;29;20048;-80
2024/02/13 01:22:11;;;;;;;9.38;1.40;;;;;;;;;;4863793;29;20056;-80
2024/02/13 01:24:41;;;;;;;17.10;1.58;;;;;;;;;;4876226;29;20045;-80
2024/02/13 01:27:13;;;;;;;7.03;0.88;;;;;;;;;;4878352;29;20049;-80
2024/02/13 01:29:43;;;;;;;8.50;1.25;;;;;;;;;;4860665;29;20060;-80
2024/02/13 01:32:16;;;;;;;11.18;1.40;;;;;;;;;;4876523;29;20048;-79
2024/02/13 01:34:46;;;;;;;7.50;1.17;;;;;;;;;;4878226;29;20285;-80
2024/02/13 01:37:16;;;;;;;10.75;1.35;;;;;;;;;;4862602;29;20053;-79
2024/02/13 01:39:47;;;;;;;8.95;1.27;;;;;;;;;;4879201;29;20401;-79
2024/02/13 01:42:17;;;;;;;5.82;1.17;;;;;;;;;;4861884;29;20507;-79
2024/02/13 01:44:47;;;;;;;9.57;1.17;;;;;;;;;;4878590;29;20056;-79
2024/02/13 01:47:17;;;;;;;8.05;1.35;;;;;;;;;;4878729;29;20057;-80
2024/02/13 01:49:49;;;;;;;9.88;1.58;;;;;;;;;;4885661;29;20067;-80
2024/02/13 01:52:19;;;;;;;9.95;1.08;;;;;;;;;;4911613;29;20075;-80
2024/02/13 01:54:50;;;;;;;5.82;1.20;;;;;;;;;;4897337;29;20068;-79
2024/02/13 01:57:25;;;;;;;8.30;1.40;;;;;;;;;;4897333;29;20047;-80
2024/02/13 01:59:57;;;;;;;7.03;1.13;;;;;;;;;;4897103;29;20191;-80
2024/02/13 02:02:32;;;;;;;9.75;1.60;;;;;;;;;;4879945;29;20057;-80
2024/02/13 02:05:10;;;;;;;6.15;1.20;;;;;;;;;;4896986;29;20052;-79
2024/02/13 02:07:41;;;;;;;11.25;1.42;;;;;;;;;;4897413;29;20056;-80
2024/02/13 02:10:12;;;;;;;7.82;1.65;;;;;;;;;;4878474;29;20555;-80
2024/02/13 02:12:42;;;;;;;11.00;1.23;;;;;;;;;;4895351;29;20055;-81
2024/02/13 02:15:13;;;;;;;5.03;1.30;;;;;;;;;;4894818;29;20048;-81
2024/02/13 02:17:55;;;;;;;5.80;1.05;;;;;;;;;;4897137;29;20426;-81
2024/02/13 02:20:26;;;;;;;5.60;1.73;;;;;;;;;;4889745;29;20040;-80
2024/02/13 02:22:57;;;;;;;6.35;1.52;;;;;;;;;;4897984;29;20447;-80
2024/02/13 02:25:28;;;;;;;8.73;1.63;;;;;;;;;;4880741;29;20053;-80
2024/02/13 02:27:58;;;;;;;12.13;1.50;;;;;;;;;;4898212;29;20049;-80
2024/02/13 02:30:29;;;;;;;9.90;1.65;;;;;;;;;;4898075;29;20059;-79
2024/02/13 02:33:02;;;;;;;3.50;1.20;;;;;;;;;;4898373;29;20044;-80
2024/02/13 02:35:33;;;;;;;5.30;1.38;;;;;;;;;;4897885;29;20056;-79
2024/02/13 02:38:03;;;;;;;17.50;2.10;;;;;;;;;;4898018;29;20044;-80
2024/02/13 02:40:34;;;;;;;9.40;1.58;;;;;;;;;;4880569;29;20060;-80
2024/02/13 02:43:04;;;;;;;5.85;1.08;;;;;;;;;;4897606;29;20495;-79
2024/02/13 02:45:34;;;;;;;7.55;1.35;;;;;;;;;;4901185;29;20470;-80
2024/02/13 02:48:05;;;;;;;5.38;1.20;;;;;;;;;;4903796;29;20048;-80
2024/02/13 02:50:35;;;;;;;5.18;1.55;;;;;;;;;;4903970;29;20053;-80
2024/02/13 02:53:07;;;;;;;4.78;1.23;;;;;;;;;;4904097;29;20407;-80
2024/02/13 02:55:37;;;;;;;6.38;1.52;;;;;;;;;;4887095;29;20051;-80
2024/02/13 02:58:10;;;;;;;7.07;1.17;;;;;;;;;;4886498;29;20060;-80
2024/02/13 03:00:41;;;;;;;9.10;1.17;;;;;;;;;;4904740;29;20053;-79
2024/02/13 03:03:11;;;;;;;4.85;1.30;;;;;;;;;;4886847;29;20049;-80
2024/02/13 03:05:43;;;;;;;4.55;1.00;;;;;;;;;;4887343;29;20060;-79
2024/02/13 03:08:15;;;;;;;;;;;;;;;;;;4904456;29;20075;-79
2024/02/13 03:10:45;;;;;;;5.22;1.20;;;;;;;;;;4904063;29;19931;-79
2024/02/13 03:13:16;;;;;;;3.67;1.00;;;;;;;;;;4903758;29;20168;-79
2024/02/13 03:15:47;;;;;;;4.45;2.00;;;;;;;;;;4904414;29;20052;-79
2024/02/13 03:18:20;;;;;;;2.55;0.80;;;;;;;;;;4904259;29;20051;-81
2024/02/13 03:20:51;;;;;;;2.83;0.85;;;;;;;;;;4904116;29;20390;-79
2024/02/13 03:23:22;;;;;;;2.88;0.65;;;;;;;;;;4903660;29;20044;-79
2024/02/13 03:25:53;;;;;;;3.00;0.80;;;;;;;;;;4887342;29;20063;-79
2024/02/13 03:28:23;;;;;;;2.40;0.60;;;;;;;;;;4903988;29;20053;-80
2024/02/13 03:30:54;;;;;;;3.53;0.52;;;;;;;;;;4886412;29;20048;-80
2024/02/13 03:33:24;;;;;;;2.65;0.45;;;;;;;;;;4887671;29;20055;-79
2024/02/13 03:35:55;;;;;;;3.65;0.63;;;;;;;;;;4903852;29;20483;-79
2024/02/13 03:38:25;;;;;;;2.50;0.68;;;;;;;;;;4870631;29;20057;-79
2024/02/13 03:40:56;;;;;;;1.73;0.65;;;;;;;;;;4903941;29;20056;-79
2024/02/13 03:43:26;;;;;;;4.65;0.52;;;;;;;;;;4904022;29;20455;-79
2024/02/13 03:45:56;;;;;;;2.22;0.52;;;;;;;;;;4903558;29;20044;-79
2024/02/13 03:48:26;;;;;;;3.08;0.55;;;;;;;;;;4903365;29;20060;-80
2024/02/13 03:50:56;;;;;;;1.65;0.50;;;;;;;;;;4903531;29;20069;-80
2024/02/13 03:53:27;;;;;;;1.85;0.40;;;;;;;;;;4887123;29;20399;-80
2024/02/13 03:56:00;;;;;;;1.73;0.50;;;;;;;;;;4903142;29;20044;-79
2024/02/13 03:58:31;;;;;;;1.20;0.52;;;;;;;;;;4900305;29;20484;-80
2024/02/13 04:01:01;;;;;;;1.92;0.63;;;;;;;;;;4900841;29;20045;-79
2024/02/13 04:03:31;;;;;;;2.83;0.40;;;;;;;;;;4900654;29;20130;-80
2024/02/13 04:06:01;;;;;;;1.67;0.50;;;;;;;;;;4900157;29;20049;-79
2024/02/13 04:08:31;;;;;;;3.42;0.68;;;;;;;;;;4883747;29;20052;-79
2024/02/13 04:11:03;;;;;;;1.00;0.50;;;;;;;;;;4901223;29;20049;-79
2024/02/13 04:13:41;;;;;;;3.45;0.60;;;;;;;;;;4900249;29;20495;-79
2024/02/13 04:16:12;;;;;;;0.95;0.68;;;;;;;;;;4900433;29;20048;-79
2024/02/13 04:18:42;;;;;;;2.05;0.40;;;;;;;;;;4882394;29;20064;-79
2024/02/13 04:21:17;;;;;;;1.33;0.40;;;;;;;;;;4900795;29;20481;-80
2024/02/13 04:23:49;;;;;;;1.48;0.50;;;;;;;;;;4900059;29;20056;-80
2024/02/13 04:26:20;;;;;;;;;;;;;;;;;;4883305;29;20048;-78
2024/02/13 04:29:04;;;;;;;1.48;0.40;;;;;;;;;;4883205;29;20262;-80
2024/02/13 04:31:35;;;;;;;1.30;0.55;;;;;;;;;;4899972;29;20053;-79
2024/02/13 04:34:08;;;;;;;2.92;0.40;;;;;;;;;;4899928;29;20056;-79
2024/02/13 04:36:39;;;;;;;2.38;0.47;;;;;;;;;;4899850;29;20052;-79
2024/02/13 04:39:11;;;;;;;0.38;0.25;;;;;;;;;;4900079;29;20498;-80
2024/02/13 04:41:44;;;;;;;3.63;0.50;;;;;;;;;;4899195;29;20487;-80
2024/02/13 04:44:15;;;;;;;2.20;0.22;;;;;;;;;;4899668;29;20052;-79
2024/02/13 04:46:45;;;;;;;1.42;0.43;;;;;;;;;;4899866;29;20049;-79
2024/02/13 04:49:15;;;;;;;4.22;0.50;;;;;;;;;;4883532;29;20064;-80
2024/02/13 04:51:45;;;;;;;2.15;0.45;;;;;;;;;;4899573;29;20048;-80
2024/02/13 04:54:16;;;;;;;3.28;0.57;;;;;;;;;;4899926;29;20064;-80
2024/02/13 04:56:47;;;;;;;1.40;0.60;;;;;;;;;;4900153;29;20514;-79
2024/02/13 04:59:18;;;;;;;1.73;0.63;;;;;;;;;;4882544;29;20108;-80
2024/02/13 05:01:49;;;;;;;3.90;0.73;;;;;;;;;;4899660;29;20068;-79
2024/02/13 05:09:37;;;;;;;2.83;0.73;;;;;;;;;;4899464;29;20041;-79
2024/02/13 05:12:07;;;;;;;3.60;0.60;;;;;;;;;;4898889;29;20475;-79
2024/02/13 05:14:37;;;;;;;1.88;0.50;;;;;;;;;;4913498;29;20097;-79
2024/02/13 05:17:08;;;;;;;1.23;0.55;;;;;;;;;;4899688;29;20044;-79
2024/02/13 05:19:39;;;;;;;3.00;0.70;;;;;;;;;;4899150;29;20475;-79
2024/02/13 05:22:09;;;;;;;3.20;0.60;;;;;;;;;;4898837;29;20060;-80
2024/02/13 05:24:40;;;;;;;1.08;0.50;;;;;;;;;;4899481;29;20391;-79
2024/02/13 05:27:10;;;;;;;3.83;0.50;;;;;;;;;;4898674;29;20403;-79
2024/02/13 05:29:43;;;;;;;2.85;0.52;;;;;;;;;;4898900;29;20059;-80
2024/02/13 05:32:16;;;;;;;1.80;0.52;;;;;;;;;;4897002;29;20064;-79
2024/02/13 05:34:46;;;;;;;2.08;0.57;;;;;;;;;;4899027;29;20051;-79
2024/02/13 05:37:20;;;;;;;2.75;0.52;;;;;;;;;;4913349;29;20490;-79
2024/02/13 05:39:54;;;;;;;2.70;0.50;;;;;;;;;;4899103;29;20071;-78
2024/02/13 05:42:24;;;;;;;4.00;0.70;;;;;;;;;;4898815;29;20074;-79
2024/02/13 05:44:54;;;;;;;3.03;0.60;;;;;;;;;;4898918;29;20048;-79
2024/02/13 05:47:31;;;;;;;4.80;0.52;;;;;;;;;;4898781;29;20055;-79
2024/02/13 05:50:07;;;;;;;2.15;0.50;;;;;;;;;;4898241;29;20064;-79
2024/02/13 05:52:38;;;;;;;1.55;0.57;;;;;;;;;;4880805;29;20052;-79
2024/02/13 05:55:09;;;;;;;;;;;;;;;;;;4899060;29;20055;-79
2024/02/13 05:57:41;;;;;;;1.73;0.63;;;;;;;;;;4898254;29;19930;-79
2024/02/13 06:00:14;;;;;;;3.95;0.60;;;;;;;;;;4898345;29;20049;-79
2024/02/13 06:02:45;;;;;;;2.15;0.70;;;;;;;;;;4895779;29;20048;-79
2024/02/13 06:05:15;;;;;;;2.10;0.50;;;;;;;;;;4899053;29;20051;-80
2024/02/13 06:07:46;;;;;;;3.40;0.68;;;;;;;;;;4897935;29;20100;-80
2024/02/13 06:10:17;;;;;;;3.50;0.77;;;;;;;;;;4898922;29;20048;-80
2024/02/13 06:12:49;;;;;;;1.60;0.57;;;;;;;;;;4898211;29;20052;-80
2024/02/13 06:15:19;;;;;;;1.77;0.63;;;;;;;;;;4898615;29;20045;-79
2024/02/13 06:17:49;;;;;;;2.78;0.60;;;;;;;;;;4895815;29;20057;-79
2024/02/13 06:20:20;;;;;;;2.45;0.60;;;;;;;;;;4897939;29;20041;-80
2024/02/13 06:22:50;;;;;;;1.60;0.60;;;;;;;;;;4898131;29;20510;-79
2024/02/13 06:25:19;;;;;;;2.88;0.52;;;;;;;;;;4897869;29;20071;-80
2024/02/13 06:27:50;;;;;;;4.20;0.80;;;;;;;;;;4897610;29;20509;-79
2024/02/13 06:30:20;;;;;;;2.78;0.57;;;;;;;;;;4895694;29;20057;-79
2024/02/13 06:32:51;;;;;;;3.45;0.68;;;;;;;;;;4898615;29;20056;-80
2024/02/13 06:35:22;;;;;;;3.25;0.55;;;;;;;;;;4912400;29;20367;-80
2024/02/13 06:37:52;;;;;;;1.60;0.70;;;;;;;;;;4897811;29;20080;-79
2024/02/13 06:40:23;;;;;;;2.92;0.60;;;;;;;;;;4898583;29;20052;-80
2024/02/13 06:42:53;;;;;;;5.15;1.40;;;;;;;;;;4912214;29;20045;-80
2024/02/13 06:45:25;;;;;;;7.50;0.70;;;;;;;;;;4897628;29;20491;-81
2024/02/13 06:47:56;;;;;;;4.55;0.85;;;;;;;;;;4897904;29;20505;-80
2024/02/13 06:50:28;;;;;;;;;;;;;;;;;;4881897;29;20053;-80
2024/02/13 06:52:57;;;;;;;3.75;0.85;;;;;;;;;;4898206;29;20262;-80
2024/02/13 06:55:28;;;;;;;1.38;0.75;;;;;;;;;;4897910;29;20040;-80
2024/02/13 06:57:58;;;;;;;4.47;0.65;;;;;;;;;;4898081;29;20114;-81
2024/02/13 07:00:30;;;;;;;6.70;0.80;;;;;;;;;;4897708;29;20060;-79
2024/02/13 07:03:00;;;;;;;5.53;0.68;;;;;;;;;;4881670;29;20044;-80
2024/02/13 07:05:31;;;;;;;4.55;0.70;;;;;;;;;;4897802;29;20049;-79
2024/02/13 07:08:01;;;;;;;2.60;0.63;;;;;;;;;;4897841;29;20087;-80
2024/02/13 07:10:31;;;;;;;1.60;0.52;;;;;;;;;;4898087;29;20053;-79
2024/02/13 07:13:02;;;;;;;2.50;0.70;;;;;;;;;;4897948;29;20044;-80
2024/02/13 07:15:32;;;;;;;2.20;0.73;;;;;;;;;;4897845;29;20052;-80
2024/02/13 07:18:03;;;;;;;2.25;0.65;;;;;;;;;;4898255;29;20403;-79
2024/02/13 07:20:34;;;;;;;17.08;2.92;;;;;;;;;;4897693;29;20371;-79
2024/02/13 07:23:04;;;;;;;5.55;0.70;;;;;;;;;;4881263;29;20048;-80
2024/02/13 07:25:34;;;;;;;1.88;0.52;;;;;;;;;;4897390;29;20052;-80
2024/02/13 07:28:05;;;;;;;3.63;0.70;;;;;;;;;;4897418;29;20059;-79
2024/02/13 07:30:36;;;;;;;1.60;0.65;;;;;;;;;;4881323;29;20044;-80
2024/02/13 07:33:08;;;;;;;3.13;0.70;;;;;;;;;;4899822;29;20475;-80
2024/02/13 07:35:39;;;;;;;3.10;0.77;;;;;;;;;;4901098;29;20045;-79
2024/02/13 07:38:09;;;;;;;2.42;0.52;;;;;;;;;;4900648;29;20051;-80
2024/02/13 07:40:40;;;;;;;3.80;0.68;;;;;;;;;;4901225;29;20403;-79
2024/02/13 07:43:12;;;;;;;3.03;0.82;;;;;;;;;;4900841;29;20044;-81
2024/02/13 07:45:43;;;;;;;4.25;0.80;;;;;;;;;;4901107;29;20399;-80
2024/02/13 07:48:15;;;;;;;2.15;0.90;;;;;;;;;;4900867;29;20040;-80
2024/02/13 07:50:46;;;;;;;3.38;0.70;;;;;;;;;;4900882;29;20049;-79
2024/02/13 07:53:16;;;;;;;5.18;0.75;;;;;;;;;;4900327;29;20506;-80
2024/02/13 07:55:48;;;;;;;1.85;0.70;;;;;;;;;;4915188;29;20052;-80
2024/02/13 07:58:20;;;;;;;3.55;0.57;;;;;;;;;;4901068;29;20494;-80
2024/02/13 08:00:50;;;;;;;3.67;0.55;;;;;;;;;;4901610;29;20411;-79
2024/02/13 08:03:21;;;;;;;3.42;0.85;;;;;;;;;;4905135;29;20047;-80
2024/02/13 08:05:54;;;;;;;;;;;;;;;;;;4907717;29;20103;-80
2024/02/13 08:08:26;;;;;;;;;;;;;;;;;;4908486;29;19930;-79
2024/02/13 08:10:58;;;;;;;3.40;0.70;;;;;;;;;;4897429;29;19930;-79
2024/02/13 08:13:28;;;;;;;2.70;0.85;;;;;;;;;;4887801;29;20503;-79
2024/02/13 08:15:58;;;;;;;3.42;0.65;;;;;;;;;;4894174;29;20053;-80
2024/02/13 08:18:29;;;;;;;7.95;0.90;;;;;;;;;;4900327;29;20055;-80
2024/02/13 08:21:00;;;;;;;5.75;1.10;;;;;;;;;;4900455;29;20052;-80
2024/02/13 08:23:30;;;;;;;7.03;0.90;;;;;;;;;;4900459;29;20048;-80
2024/02/13 08:26:00;;;;;;;2.97;0.82;;;;;;;;;;4904061;29;20056;-79
2024/02/13 08:28:31;;;;;;;4.90;0.60;;;;;;;;;;4918743;29;20056;-80
2024/02/13 08:31:01;;;;;;;7.15;0.85;;;;;;;;;;4918860;29;20044;-80
2024/02/13 08:33:31;;;;;;;9.40;1.13;;;;;;;;;;4901582;29;20055;-79
2024/02/13 08:36:02;;;;;;;6.10;0.90;;;;;;;;;;4918832;29;20059;-80
2024/02/13 08:38:32;;;;;;;2.65;0.55;;;;;;;;;;4904475;29;20399;-80
2024/02/13 08:41:04;;;;;;;2.03;0.70;;;;;;;;;;4899960;29;20055;-80
2024/02/13 08:43:34;;;;;;;2.70;0.68;;;;;;;;;;4899739;29;20048;-80
2024/02/13 08:46:04;;;;;;;5.05;0.77;;;;;;;;;;4899801;29;20049;-80
2024/02/13 08:48:37;;;;;;;2.78;0.75;;;;;;;;;;4882480;29;20380;-80
2024/02/13 08:51:07;;;;;;;;;;;;;;;;;;4900016;29;20064;-80
2024/02/13 08:53:40;;;;;;;2.58;0.60;;;;;;;;;;4883241;29;19973;-80
2024/02/13 08:56:11;;;;;;;3.17;0.60;;;;;;;;;;4895323;29;20045;-79
2024/02/13 08:58:43;;;;;;;1.35;0.63;;;;;;;;;;4881123;29;20060;-80
2024/02/13 09:01:19;;;;;;;2.17;0.50;;;;;;;;;;4880591;29;20492;-80
2024/02/13 09:03:50;;;;;;;2.30;0.77;;;;;;;;;;4880867;29;20079;-79
2024/02/13 09:06:20;;;;;;;5.93;0.90;;;;;;;;;;4863343;29;20166;-80
2024/02/13 09:08:50;;;;;;;2.40;0.50;;;;;;;;;;4880833;29;20429;-80
2024/02/13 09:11:20;;;;;;;1.60;0.80;;;;;;;;;;4880517;29;20045;-80
2024/02/13 09:13:51;;;;;;;4.57;0.75;;;;;;;;;;4863198;29;20159;-80
2024/02/13 09:16:23;;;;;;;4.95;0.80;;;;;;;;;;4882965;29;20394;-80
2024/02/13 09:18:54;;;;;;;3.90;0.73;;;;;;;;;;4899130;29;20055;-80
2024/02/13 09:21:26;;;;;;;3.30;0.50;;;;;;;;;;4899426;29;20044;-80
2024/02/13 09:23:56;;;;;;;1.73;0.50;;;;;;;;;;4899116;29;20539;-80
2024/02/13 09:26:27;;;;;;;4.18;0.60;;;;;;;;;;4897778;29;20507;-80
2024/02/13 09:29:01;;;;;;;4.20;0.90;;;;;;;;;;4898945;29;20376;-80
2024/02/13 09:31:31;;;;;;;8.50;1.42;;;;;;;;;;4898674;29;20538;-81
2024/02/13 09:34:01;;;;;;;4.80;0.60;;;;;;;;;;4899205;29;20049;-80
2024/02/13 09:36:31;;;;;;;1.70;0.50;;;;;;;;;;4898604;29;20053;-79
2024/02/13 09:39:04;;;;;;;9.32;0.73;;;;;;;;;;4880217;29;20049;-80
2024/02/13 09:41:45;;;;;;;5.18;0.88;;;;;;;;;;4880207;29;20045;-80
2024/02/13 09:44:16;;;;;;;8.02;0.80;;;;;;;;;;4909355;29;20071;-81
2024/02/13 09:46:47;;;;;;;2.53;0.73;;;;;;;;;;4898468;29;20056;-79
2024/02/13 09:49:17;;;;;;;6.07;0.73;;;;;;;;;;4881071;29;20060;-81
2024/02/13 09:51:52;;;;;;;4.72;0.80;;;;;;;;;;4882012;29;20063;-81
2024/02/13 09:54:25;;;;;;;6.70;0.75;;;;;;;;;;4898175;29;20055;-80
2024/02/13 09:56:57;;;;;;;7.35;0.85;;;;;;;;;;4898682;29;20048;-81
2024/02/13 09:59:29;;;;;;;4.35;0.68;;;;;;;;;;4898658;29;20052;-80
2024/02/13 10:02:01;;;;;;;1.42;0.70;;;;;;;;;;4898794;29;20052;-80
2024/02/13 10:04:31;;;;;;;;;;;;;;;;;;4882810;29;20044;-80
2024/02/13 10:07:04;;;;;;;2.95;0.50;;;;;;;;;;4898631;29;19923;-80
2024/02/13 10:09:34;;;;;;;4.05;0.80;;;;;;;;;;4898440;29;20048;-81
2024/02/13 10:12:14;;;;;;;0.95;0.43;;;;;;;;;;4898013;29;20478;-81
2024/02/13 10:14:44;;;;;;;2.22;0.60;;;;;;;;;;4898573;29;20044;-80
2024/02/13 10:17:14;;;;;;;3.40;0.50;;;;;;;;;;4897786;29;20414;-79
2024/02/13 10:19:45;;;;;;;2.30;0.70;;;;;;;;;;4881983;29;20052;-80
2024/02/13 10:22:16;;;;;;;1.70;0.68;;;;;;;;;;4898459;29;20045;-80
2024/02/13 10:24:53;;;;;;;7.95;0.82;;;;;;;;;;4897941;29;20037;-81
2024/02/13 10:27:24;;;;;;;3.47;0.55;;;;;;;;;;4882051;29;20483;-81
2024/02/13 10:29:54;;;;;;;2.15;0.43;;;;;;;;;;4898190;29;20059;-80
2024/02/13 10:32:24;;;;;;;4.35;0.63;;;;;;;;;;4880716;29;20411;-81
2024/02/13 10:34:55;;;;;;;5.57;0.70;;;;;;;;;;4897766;29;20049;-81
2024/02/13 10:37:27;;;;;;;1.80;0.60;;;;;;;;;;4897942;29;20044;-80
2024/02/13 10:40:02;;;;;;;2.05;0.60;;;;;;;;;;4883419;29;20075;-80
2024/02/13 10:42:37;;;;;;;4.20;0.65;;;;;;;;;;4896535;29;20052;-81
2024/02/13 10:45:10;;;;;;;6.47;0.70;;;;;;;;;;4879200;29;20056;-80
2024/02/13 10:47:54;;;;;;;1.95;0.80;;;;;;;;;;4896622;29;20041;-80
2024/02/13 10:50:25;;;;;;;2.25;0.63;;;;;;;;;;4896450;29;20057;-80
2024/02/13 10:52:58;;;;;;;1.65;0.50;;;;;;;;;;4896648;29;20057;-81
2024/02/13 10:55:29;;;;;;;2.05;0.50;;;;;;;;;;4896820;29;20060;-82
2024/02/13 10:58:04;;;;;;;1.27;0.52;;;;;;;;;;4896656;29;20503;-80
2024/02/13 11:00:55;;;;;;;4.00;0.65;;;;;;;;;;4896784;29;20044;-80
2024/02/13 11:03:28;;;;;;;2.05;0.38;;;;;;;;;;4896993;29;20494;-80
2024/02/13 11:05:59;;;;;;;0.98;0.63;;;;;;;;;;4911176;29;20055;-80
2024/02/13 11:08:30;;;;;;;2.40;0.85;;;;;;;;;;4900709;29;20399;-81
2024/02/13 11:11:04;;;;;;;3.10;0.60;;;;;;;;;;4883620;29;20048;-80
2024/02/13 11:13:36;;;;;;;1.65;0.70;;;;;;;;;;4884560;29;20044;-81
2024/02/13 11:16:09;;;;;;;3.28;0.70;;;;;;;;;;4915578;29;20506;-81
2024/02/13 11:18:51;;;;;;;2.80;0.60;;;;;;;;;;4883868;29;20436;-83
2024/02/13 11:21:26;;;;;;;2.13;0.40;;;;;;;;;;4884165;29;20067;-83
2024/02/13 11:24:00;;;;;;;2.47;0.77;;;;;;;;;;4883856;29;20064;-83
2024/02/13 11:26:35;;;;;;;5.25;0.52;;;;;;;;;;4901156;29;20048;-82
2024/02/13 11:29:14;;;;;;;3.53;0.52;;;;;;;;;;4884965;29;20059;-81
2024/02/13 11:31:58;;;;;;;1.10;0.70;;;;;;;;;;4900644;29;20053;-82
2024/02/13 11:34:41;;;;;;;7.50;0.85;;;;;;;;;;4901164;29;20055;-81
2024/02/13 11:37:16;;;;;;;3.35;0.60;;;;;;;;;;4901191;29;20052;-80
2024/02/13 11:39:48;;;;;;;2.25;0.60;;;;;;;;;;4901182;29;20150;-82
2024/02/13 11:42:19;;;;;;;3.95;0.40;;;;;;;;;;4900828;29;20053;-82
2024/02/13 11:44:51;;;;;;;2.05;0.50;;;;;;;;;;4900948;29;20048;-83
2024/02/13 11:47:24;;;;;;;2.42;0.40;;;;;;;;;;4884605;29;20049;-81
2024/02/13 11:49:55;;;;;;;3.50;0.60;;;;;;;;;;4900614;29;20056;-81
2024/02/13 11:52:26;;;;;;;4.07;0.60;;;;;;;;;;4901298;29;20055;-80
2024/02/13 11:54:56;;;;;;;0.98;0.43;;;;;;;;;;4900918;29;20055;-80
2024/02/13 11:57:26;;;;;;;2.53;0.52;;;;;;;;;;4901215;29;20055;-82
2024/02/13 12:00:05;;;;;;;4.85;0.70;;;;;;;;;;4900908;29;20075;-81
2024/02/13 12:02:36;;;;;;;1.85;0.70;;;;;;;;;;4884373;29;20048;-80
2024/02/13 12:05:10;;;;;;;2.72;0.70;;;;;;;;;;4900166;29;20052;-81
2024/02/13 12:07:41;;;;;;;1.85;0.63;;;;;;;;;;4900909;29;20044;-83
2024/02/13 12:10:13;;;;;;;4.20;1.48;;;;;;;;;;4900748;29;20036;-81
2024/02/13 12:12:43;;;;;;;3.92;1.02;;;;;;;;;;4900679;29;20048;-82
2024/02/13 12:15:20;;;;;;;2.67;0.70;;;;;;;;;;4900589;29;20057;-80
2024/02/13 12:17:55;;;;;;;2.33;0.50;;;;;;;;;;4899228;29;20064;-82
2024/02/13 12:20:29;;;;;;;3.05;0.77;;;;;;;;;;4900150;29;20048;-80
2024/02/13 12:23:02;;;;;;;2.67;0.70;;;;;;;;;;4894773;29;20068;-81
2024/02/13 12:25:35;;;;;;;2.47;0.52;;;;;;;;;;4894490;29;20411;-81
2024/02/13 12:28:06;;;;;;;2.53;0.50;;;;;;;;;;4881082;29;20053;-81
2024/02/13 12:30:39;;;;;;;2.85;0.43;;;;;;;;;;4880417;29;20503;-84
2024/02/13 12:33:19;;;;;;;3.50;0.47;;;;;;;;;;4881186;29;20045;-82
2024/02/13 12:36:08;;;;;;;2.63;0.57;;;;;;;;;;4881836;29;20052;-82
2024/02/13 12:38:39;;;;;;;1.15;0.43;;;;;;;;;;4881366;29;20053;-82
2024/02/13 12:41:09;;;;;;;1.63;0.50;;;;;;;;;;4865065;29;20049;-81
2024/02/13 12:43:41;;;;;;;2.35;0.50;;;;;;;;;;4880774;29;20073;-83
2024/02/13 12:46:13;;;;;;;2.00;0.60;;;;;;;;;;4880620;29;20404;-82
2024/02/13 12:48:43;;;;;;;1.83;0.60;;;;;;;;;;4881186;29;20044;-82
2024/02/13 12:51:13;;;;;;;4.47;0.60;;;;;;;;;;4896879;29;20048;-85
2024/02/13 12:53:45;;;;;;;1.13;0.45;;;;;;;;;;4899351;29;20068;-85
2024/02/13 12:56:16;;;;;;;1.85;0.60;;;;;;;;;;4898746;29;20052;-83
2024/02/13 12:58:51;;;;;;;5.07;0.52;;;;;;;;;;4899113;29;20049;-83
2024/02/13 13:01:23;;;;;;;3.55;0.45;;;;;;;;;;4883032;29;20064;-84
2024/02/13 13:03:56;;;;;;;2.13;0.45;;;;;;;;;;4898049;29;20057;-84
2024/02/13 13:06:26;;;;;;;3.53;0.52;;;;;;;;;;4896981;29;20048;-86
2024/02/13 13:08:58;;;;;;;4.50;1.00;;;;;;;;;;4909544;29;20056;-89
2024/02/13 13:11:32;;;;;;;1.98;0.40;;;;;;;;;;4880636;29;20049;-85
2024/02/13 13:14:03;;;;;;;2.17;0.40;;;;;;;;;;4898384;29;20053;-84
2024/02/13 13:16:35;;;;;;;1.85;0.80;;;;;;;;;;4898892;29;20383;-85
2024/02/13 13:19:09;;;;;;;2.30;0.88;;;;;;;;;;4899044;29;20511;-85
2024/02/13 13:21:41;;;;;;;3.83;0.60;;;;;;;;;;4898647;29;20052;-84
2024/02/13 13:24:13;;;;;;;1.58;0.40;;;;;;;;;;4897545;29;20499;-86
2024/02/13 13:26:45;;;;;;;1.05;0.43;;;;;;;;;;4897015;29;20064;-84
2024/02/13 13:29:17;;;;;;;2.75;0.60;;;;;;;;;;4882132;29;20056;-87
2024/02/13 13:31:49;;;;;;;0.75;0.50;;;;;;;;;;4898991;29;20491;-86
2024/02/13 13:34:22;;;;;;;;;;;;;;;;;;4899400;29;20364;-83
2024/02/13 13:36:55;;;;;;;1.25;0.30;;;;;;;;;;4896775;29;19928;-84
2024/02/13 13:39:28;;;;;;;1.15;0.45;;;;;;;;;;4881105;29;20053;-86
2024/02/13 13:42:07;;;;;;;1.17;0.50;;;;;;;;;;4866316;29;20052;-84
2024/02/13 13:44:40;;;;;;;1.35;0.52;;;;;;;;;;4897969;29;20044;-85
2024/02/13 13:47:10;;;;;;;1.15;0.57;;;;;;;;;;4881715;29;20052;-87
2024/02/13 13:49:44;;;;;;;4.05;0.70;;;;;;;;;;4897644;29;20048;-84
2024/02/13 13:52:14;;;;;;;3.05;0.77;;;;;;;;;;4912111;29;20059;-86
2024/02/13 13:54:44;;;;;;;1.42;0.30;;;;;;;;;;4898003;29;20045;-85
2024/02/13 13:57:14;;;;;;;3.30;0.45;;;;;;;;;;4911722;29;20048;-85
2024/02/13 13:59:44;;;;;;;4.70;0.38;;;;;;;;;;4897537;29;20049;-83
2024/02/13 14:02:15;;;;;;;4.03;0.73;;;;;;;;;;4897572;29;20048;-84
2024/02/13 14:04:46;;;;;;;2.13;0.32;;;;;;;;;;4896755;29;20059;-81
2024/02/13 14:07:17;;;;;;;1.33;0.55;;;;;;;;;;4897923;29;20051;-83
2024/02/13 14:09:47;;;;;;;2.55;0.50;;;;;;;;;;4897671;29;20487;-84
2024/02/13 14:12:17;;;;;;;1.98;0.50;;;;;;;;;;4897383;29;20048;-85
2024/02/13 14:14:47;;;;;;;2.72;1.00;;;;;;;;;;4897462;29;20049;-82
2024/02/13 14:17:17;;;;;;;1.25;0.43;;;;;;;;;;4911597;29;20048;-84
2024/02/13 14:19:47;;;;;;;0.80;0.35;;;;;;;;;;4880351;29;20502;-84
2024/02/13 14:22:17;;;;;;;1.42;0.50;;;;;;;;;;4897627;29;20049;-82
2024/02/13 14:24:49;;;;;;;2.72;0.60;;;;;;;;;;4896489;29;20392;-84
2024/02/13 14:27:19;;;;;;;2.13;0.50;;;;;;;;;;4896563;29;20052;-80
2024/02/13 14:29:49;;;;;;;2.15;0.40;;;;;;;;;;4896828;29;20048;-83
2024/02/13 14:32:19;;;;;;;3.15;0.60;;;;;;;;;;4896512;29;20125;-82
2024/02/13 14:34:50;;;;;;;1.48;0.30;;;;;;;;;;4896210;29;20045;-84
2024/02/13 14:37:23;;;;;;;3.78;0.50;;;;;;;;;;4896807;29;20483;-85
2024/02/13 14:39:54;;;;;;;1.45;0.50;;;;;;;;;;4880913;29;20048;-84
2024/02/13 14:42:24;;;;;;;2.85;0.40;;;;;;;;;;4896672;29;20503;-84
2024/02/13 14:44:54;;;;;;;1.60;0.70;;;;;;;;;;4897017;29;20055;-83
2024/02/13 14:47:24;;;;;;;4.03;0.57;;;;;;;;;;4896535;29;20052;-85
2024/02/13 14:49:57;;;;;;;2.35;0.50;;;;;;;;;;4902702;29;20487;-84
2024/02/13 14:52:29;;;;;;;1.52;0.40;;;;;;;;;;4914481;29;20059;-84
2024/02/13 14:54:59;;;;;;;1.10;0.47;;;;;;;;;;4916104;29;20407;-84
2024/02/13 14:57:31;;;;;;;1.02;0.30;;;;;;;;;;4915314;29;20059;-84
2024/02/13 15:00:03;;;;;;;2.10;0.30;;;;;;;;;;4915788;29;20044;-87
2024/02/13 15:02:35;;;;;;;0.45;0.40;;;;;;;;;;4900085;29;20387;-83
2024/02/13 15:05:07;;;;;;;0.85;0.50;;;;;;;;;;4917117;29;20051;-87
2024/02/13 15:07:38;;;;;;;0.85;0.40;;;;;;;;;;4899420;29;20402;-87
2024/02/13 15:10:13;;;;;;;1.60;0.43;;;;;;;;;;4916899;29;20074;-87
2024/02/13 15:12:45;;;;;;;1.65;0.60;;;;;;;;;;4916400;29;20052;-86
2024/02/13 15:15:17;;;;;;;0.85;0.55;;;;;;;;;;4899762;29;20048;-89
2024/02/13 15:17:47;;;;;;;1.33;0.50;;;;;;;;;;4916750;29;20473;-87